Ciclone tropical ANDO 2001: trajetória, intensidade e histórico
13/01/2001, 00:00:00
31/12/2000, 06:00:00 – 13/01/2001, 00:00:00
Trajetória histórica
Acompanhe a evolução e o deslocamento de Ciclone tropical ANDO em 2001, com a trajetória completa registrada, ventos máximos sustentados de 120 nós, pressão central mínima e cronologia detalhada.
| Data | Hora | Tipo | Ventokm/h | PressãohPa |
|---|---|---|---|---|
| 13/01 | 00:00 | TCCiclone tropical | -- | 1008 |
| 12/01 | 21:00 | TDDepressão tropical | -- | 1007 |
| 12/01 | 18:00 | TCCiclone tropical | 45 | 1006 |
| 12/01 | 15:00 | EXCiclone extratropical | 50 | 1005 |
| 12/01 | 12:00 | STSTempestade tropical severa | 55 | 1004 |
| 12/01 | 09:00 | EXCiclone extratropical | 60 | 1003 |
| 12/01 | 06:00 | STSTempestade tropical severa | 65 | 1002 |
| 12/01 | 03:00 | EXCiclone extratropical | 65 | 1001 |
| 12/01 | 00:00 | STSTempestade tropical severa | 65 | 1000 |
| 11/01 | 21:00 | EXCiclone extratropical | 65 | 999 |
| 11/01 | 18:00 | STSTempestade tropical severa | 65 | 998 |
| 11/01 | 15:00 | EXCiclone extratropical | 70 | 997 |
| 11/01 | 12:00 | STSTempestade tropical severa | 75 | 995 |
| 11/01 | 09:00 | EXCiclone extratropical | 75 | 995 |
| 11/01 | 06:00 | STSTempestade tropical severa | 75 | 995 |
| 11/01 | 03:00 | EXCiclone extratropical | 75 | 995 |
| 11/01 | 00:00 | STSTempestade tropical severa | 75 | 995 |
| 10/01 | 21:00 | EXCiclone extratropical | 75 | 995 |
| 10/01 | 18:00 | STSTempestade tropical severa | 75 | 994 |
| 10/01 | 15:00 | EXCiclone extratropical | 80 | 993 |
| 10/01 | 12:00 | STSTempestade tropical severa | 85 | 992 |
| 10/01 | 09:00 | TDDepressão tropical | 85 | 992 |
| 10/01 | 06:00 | STSTempestade tropical severa | 45 | 992 |
| 10/01 | 03:00 | TDDepressão tropical | 50 | 992 |
| 10/01 | 00:00 | STSTempestade tropical severa | 55 | 992 |
| 09/01 | 21:00 | TSTempestade tropical | 60 | 991 |
| 09/01 | 18:00 | TDDepressão tropical | 65 | 990 |
| 09/01 | 15:00 | TSTempestade tropical | 70 | 989 |
| 09/01 | 12:00 | TDDepressão tropical | 75 | 988 |
| 09/01 | 09:00 | TSTempestade tropical | 80 | 987 |
| 09/01 | 06:00 | TDDepressão tropical | 85 | 985 |
| 09/01 | 03:00 | TSTempestade tropical | 95 | 985 |
| 09/01 | 00:00 | TDDepressão tropical | 100 | 985 |
| 08/01 | 21:00 | TSTempestade tropical | 105 | 985 |
| 08/01 | 18:00 | TDDepressão tropical | 110 | 985 |
| 08/01 | 15:00 | TCCiclone tropical | 120 | 983 |
| 08/01 | 12:00 | TDDepressão tropical | 130 | 980 |
| 08/01 | 09:00 | TCCiclone tropical | 140 | 975 |
| 08/01 | 06:00 | MTSTempestade tropical moderada | 150 | 970 |
| 08/01 | 03:00 | TCCiclone tropical | 155 | 965 |
| 08/01 | 00:00 | MTSTempestade tropical moderada | 165 | 960 |
| 07/01 | 21:00 | TCCiclone tropical | 175 | 955 |
| 07/01 | 18:00 | MTSTempestade tropical moderada | 185 | 950 |
| 07/01 | 15:00 | TCCiclone tropical | 190 | 945 |
| 07/01 | 12:00 | MTSTempestade tropical moderada | 195 | 940 |
| 07/01 | 09:00 | TCCiclone tropical | 200 | 935 |
| 07/01 | 06:00 | MTSTempestade tropical moderada | 205 | 930 |
| 07/01 | 03:00 | TCCiclone tropical | 210 | 928 |
| 07/01 | 00:00 | MTSTempestade tropical moderada | 215 | 925 |
| 06/01 | 21:00 | TCCiclone tropical | 220 | 925 |
| 06/01 | 18:00 | MTSTempestade tropical moderada | 220 | 925 |
| 06/01 | 15:00 | TCCiclone tropical | 220 | 925 |
| 06/01 | 12:00 | MTSTempestade tropical moderada | 220 | 925 |
| 06/01 | 09:00 | TCCiclone tropical | 220 | 925 |
| 06/01 | 06:00 | MTSTempestade tropical moderada | 220 | 925 |
| 06/01 | 03:00 | TCCiclone tropical | 220 | 930 |
| 06/01 | 00:00 | MTSTempestade tropical moderada | 220 | 935 |
| 05/01 | 21:00 | TCCiclone tropical | 220 | 935 |
| 05/01 | 18:00 | MTSTempestade tropical moderada | 220 | 935 |
| 05/01 | 15:00 | TCCiclone tropical | 220 | 938 |
| 05/01 | 12:00 | MTSTempestade tropical moderada | 215 | 940 |
| 05/01 | 09:00 | TCCiclone tropical | 215 | 940 |
| 05/01 | 06:00 | MTSTempestade tropical moderada | 215 | 940 |
| 05/01 | 03:00 | TCCiclone tropical | 210 | 938 |
| 05/01 | 00:00 | MTSTempestade tropical moderada | 205 | 935 |
| 04/01 | 21:00 | TCCiclone tropical | 200 | 935 |
| 04/01 | 18:00 | MTSTempestade tropical moderada | 195 | 935 |
| 04/01 | 15:00 | TCCiclone tropical | 190 | 943 |
| 04/01 | 12:00 | MTSTempestade tropical moderada | 185 | 950 |
| 04/01 | 09:00 | TCCiclone tropical | 175 | 955 |
| 04/01 | 06:00 | MTSTempestade tropical moderada | 165 | 960 |
| 04/01 | 03:00 | TCCiclone tropical | 155 | 963 |
| 04/01 | 00:00 | MTSTempestade tropical moderada | 150 | 965 |
| 03/01 | 21:00 | TCCiclone tropical | 145 | 969 |
| 03/01 | 18:00 | TDDepressão tropical | 140 | 973 |
| 03/01 | 15:00 | TCCiclone tropical | 135 | 974 |
| 03/01 | 12:00 | TDDepressão tropical | 130 | 975 |
| 03/01 | 09:00 | TSTempestade tropical | 120 | 980 |
| 03/01 | 06:00 | TDDepressão tropical | 110 | 985 |
| 03/01 | 03:00 | TSTempestade tropical | 100 | 989 |
| 03/01 | 00:00 | TDDepressão tropical | 95 | 992 |
| 02/01 | 21:00 | TSTempestade tropical | 85 | 994 |
| 02/01 | 18:00 | TDDepressão tropical | 75 | 995 |
| 02/01 | 15:00 | TSTempestade tropical | 70 | 996 |
| 02/01 | 12:00 | DBPerturbação tropical | 65 | 997 |
| 02/01 | 09:00 | TDDepressão tropical | 55 | 998 |
| 02/01 | 06:00 | DBPerturbação tropical | 45 | 999 |
| 02/01 | 03:00 | TDDepressão tropical | 45 | 1000 |
| 02/01 | 00:00 | DBPerturbação tropical | 45 | 1000 |
| 01/01 | 21:00 | TDDepressão tropical | 45 | 1000 |
| 01/01 | 18:00 | DBPerturbação tropical | 45 | 1000 |
| 01/01 | 15:00 | TDDepressão tropical | 45 | 1000 |
| 01/01 | 12:00 | DBPerturbação tropical | 45 | 1000 |
| 01/01 | 09:00 | TDDepressão tropical | 45 | 1000 |
| 01/01 | 06:00 | DBPerturbação tropical | 45 | 1000 |
| 01/01 | 03:00 | TDDepressão tropical | 45 | 1000 |
| 01/01 | 00:00 | DBPerturbação tropical | 45 | 1000 |
| 31/12 | 21:00 | TDDepressão tropical | 45 | 1001 |
| 31/12 | 18:00 | DBPerturbação tropical | 35 | 1002 |
| 31/12 | 15:00 | TDDepressão tropical | 35 | 1002 |
| 31/12 | 12:00 | DBPerturbação tropical | 35 | 1002 |
| 31/12 | 09:00 | TDDepressão tropical | 45 | 1002 |
| 31/12 | 06:00 | DBPerturbação tropical | 55 | 1002 |
Cronologia de localização
103 Registos de localizaçãoDesastres naturais próximos
Detalhes do evento
Ligações das fontes
Também pode encontrar estas ferramentas úteis
A localização, a extensão e o estado de cada evento podem ser atualizados em momentos diferentes consoante a fonte. Confirme decisões importantes junto das autoridades oficiais de emergência.
Os registos de eventos provêm da NASA EONET e são complementados por registos de deslizamentos de terra do USGS FDSN. As análises e previsões de tempestades podem utilizar a NOAA NHC ou o JTWC, com registos históricos ATCF da UCAR/NCAR quando disponíveis. As imagens de satélite provêm da NASA Worldview/GIBS (GOES e Himawari) ou da EUMETSAT Meteosat, consoante a cobertura do mapa.
Fontes: NASA EONET · USGS · NOAA NHC · JTWC · UCAR/NCAR ATCF · NASA Worldview/GIBS · EUMETSAT Meteosat · OpenStreetMap contributors